createdAt,value
2022-11-30T00:00:49.100Z,38.8571
2022-11-30T00:01:40.836Z,42.7143
2022-11-30T00:02:41.046Z,41
2022-11-30T00:03:40.920Z,39.7143
2022-11-30T00:04:40.933Z,39.7143
2022-11-30T00:04:47.785Z,40.2143
2022-11-30T00:05:47.555Z,38.9286
2022-11-30T00:06:04.425Z,38.9286
2022-11-30T00:07:04.456Z,40.3571
2022-11-30T00:08:04.497Z,41.9286
2022-11-30T00:09:04.550Z,41.4286
2022-11-30T00:10:04.558Z,40.5
2022-11-30T00:11:04.594Z,40.5
2022-11-30T00:12:04.623Z,39.6429
2022-11-30T00:13:04.654Z,40.9286
2022-11-30T00:14:04.710Z,40.5
2022-11-30T00:15:04.729Z,40.6429
2022-11-30T00:16:04.766Z,39.6429
2022-11-30T00:17:04.864Z,41.1429
2022-11-30T00:17:58.582Z,41.2143
2022-11-30T00:18:58.611Z,41.8571
2022-11-30T00:19:58.639Z,40
2022-11-30T00:20:58.682Z,40.5
2022-11-30T00:21:58.726Z,42.5
2022-11-30T00:22:58.752Z,41.1429
2022-11-30T00:23:58.803Z,40.8571
2022-11-30T00:24:58.839Z,39.1429
2022-11-30T00:25:58.883Z,41
2022-11-30T00:26:58.907Z,42.8571
2022-11-30T00:27:58.939Z,43
2022-11-30T00:28:58.967Z,46.7143
2022-11-30T00:29:59.006Z,48.9286
2022-11-30T00:30:59.141Z,49
2022-11-30T00:31:59.065Z,46.3571
2022-11-30T00:32:59.101Z,45.7143
2022-11-30T00:33:59.123Z,43.5
2022-11-30T00:34:59.162Z,46.6429
2022-11-30T00:35:59.197Z,41.9286
2022-11-30T00:36:59.237Z,45.9286
2022-11-30T00:37:59.262Z,45.7143
2022-11-30T00:38:59.296Z,43
2022-11-30T00:39:59.329Z,43.5
2022-11-30T00:40:59.360Z,42.7143
2022-11-30T00:41:59.400Z,43.4286
2022-11-30T00:42:59.432Z,44
2022-11-30T00:43:59.460Z,45
2022-11-30T00:44:59.486Z,46.3571
2022-11-30T00:45:59.581Z,42.4286
2022-11-30T00:46:59.546Z,42
2022-11-30T00:47:59.574Z,41
2022-11-30T00:48:59.607Z,42.7143
2022-11-30T00:49:59.633Z,41.6429
2022-11-30T00:50:59.668Z,41.8571
2022-11-30T00:51:59.694Z,40.6429
2022-11-30T00:52:59.733Z,41.4286
2022-11-30T00:53:59.755Z,42.4286
2022-11-30T00:55:03.671Z,41.7143
2022-11-30T00:55:59.816Z,42.8571
2022-11-30T00:56:59.854Z,42.8571
2022-11-30T00:57:59.880Z,42.6429
2022-11-30T00:58:59.901Z,44.3571
2022-11-30T00:59:59.938Z,40.6429
2022-11-30T01:01:00.023Z,43.2143
2022-11-30T01:01:59.982Z,41.4286
2022-11-30T01:03:00.019Z,41.8571
2022-11-30T01:04:00.063Z,39.6429
2022-11-30T01:05:00.092Z,43.7143
2022-11-30T01:06:00.119Z,42.9286
2022-11-30T01:07:00.152Z,42.9286
2022-11-30T01:08:00.221Z,43.1429
2022-11-30T01:09:00.192Z,42
2022-11-30T01:10:00.222Z,42.1429
2022-11-30T01:11:00.244Z,41.2143
2022-11-30T01:12:00.275Z,42.4286
2022-11-30T01:13:00.320Z,42.3571
2022-11-30T01:14:00.350Z,42.8571
2022-11-30T01:15:00.381Z,43.1429
2022-11-30T01:16:00.426Z,42.7143
2022-11-30T01:17:00.451Z,42.4286
2022-11-30T01:18:00.477Z,43.4286
2022-11-30T01:19:00.512Z,43.9286
2022-11-30T01:20:00.543Z,41.8571
2022-11-30T01:21:00.565Z,42
2022-11-30T01:22:00.602Z,43.1429
2022-11-30T01:23:00.634Z,40.6429
2022-11-30T01:24:00.657Z,39.6429
2022-11-30T01:25:00.698Z,42.7143
2022-11-30T01:26:00.746Z,41.2143
2022-11-30T01:27:00.762Z,43.7143
2022-11-30T01:28:00.804Z,41.9286
2022-11-30T01:29:00.837Z,42.3571
2022-11-30T01:30:00.886Z,42
2022-11-30T01:30:30.490Z,42.1429
2022-11-30T01:31:30.419Z,41.9286
2022-11-30T01:32:30.457Z,43.6429
2022-11-30T01:33:30.502Z,42.8571
2022-11-30T01:34:30.523Z,42.9286
2022-11-30T01:35:30.560Z,42.8571
2022-11-30T01:36:30.588Z,44
2022-11-30T01:37:30.625Z,43.3571
2022-11-30T01:38:30.677Z,43.3571
2022-11-30T01:39:30.697Z,42.1429
2022-11-30T01:40:30.729Z,43.9286
2022-11-30T01:41:30.764Z,42.6429
2022-11-30T01:42:30.783Z,43.6429
2022-11-30T01:43:30.834Z,44.3571
2022-11-30T01:44:30.845Z,42.4286
2022-11-30T01:45:30.889Z,41.8571
2022-11-30T01:46:30.981Z,42.3571
2022-11-30T01:47:30.951Z,43.5
2022-11-30T01:48:30.983Z,41.9286
2022-11-30T01:49:31.026Z,42.7143
2022-11-30T01:50:31.056Z,42.9286
2022-11-30T01:51:31.113Z,42.7143
2022-11-30T01:52:31.126Z,43.3571
2022-11-30T01:53:31.184Z,44.2143
2022-11-30T01:54:31.211Z,42.3571
2022-11-30T01:55:31.218Z,44.2143
2022-11-30T01:56:31.278Z,42.7143
2022-11-30T01:57:31.291Z,43.3571
2022-11-30T01:58:31.342Z,42.3571
2022-11-30T01:59:31.375Z,43.6429
2022-11-30T02:00:31.380Z,44.8571
2022-11-30T02:01:31.444Z,43.1429
2022-11-30T02:02:31.449Z,43.2143
2022-11-30T02:03:31.492Z,42.7143
2022-11-30T02:04:31.494Z,42
2022-11-30T02:05:31.524Z,43.8571
2022-11-30T02:06:31.546Z,42
2022-11-30T02:07:31.758Z,43.5
2022-11-30T02:08:31.965Z,43
2022-11-30T02:09:31.648Z,42.9286
2022-11-30T02:10:31.716Z,42.7143
2022-11-30T02:11:31.721Z,42.9286
2022-11-30T02:12:31.748Z,41.5
2022-11-30T02:13:31.775Z,44.2143
2022-11-30T02:14:31.827Z,43.2143
2022-11-30T02:15:31.892Z,43.2143
2022-11-30T02:16:31.878Z,42.8571
2022-11-30T02:17:31.911Z,43
2022-11-30T02:18:32.057Z,44
2022-11-30T02:19:31.961Z,44.4286
2022-11-30T02:20:31.997Z,45
2022-11-30T02:21:32.035Z,43.7143
2022-11-30T02:22:32.072Z,45.1429
2022-11-30T02:23:35.389Z,44.3571
2022-11-30T02:24:32.135Z,43.2143
2022-11-30T02:25:32.175Z,43.5
2022-11-30T02:26:32.228Z,42.4286
2022-11-30T02:27:32.248Z,44.3571
2022-11-30T02:28:32.272Z,44.9286
2022-11-30T02:29:32.326Z,44.5
2022-11-30T02:30:32.333Z,45.1429
2022-11-30T02:31:32.381Z,44.4286
2022-11-30T02:32:32.437Z,43.3571
2022-11-30T02:33:32.436Z,43.5
2022-11-30T02:34:32.490Z,44.8571
2022-11-30T02:35:32.500Z,44.6429
2022-11-30T02:36:32.530Z,44.5
2022-11-30T02:37:32.580Z,44.8571
2022-11-30T02:38:32.597Z,44.8571
2022-11-30T02:39:32.647Z,43.1429
2022-11-30T02:40:32.655Z,45.3571
2022-11-30T02:41:37.697Z,45.7143
2022-11-30T02:42:32.733Z,44.6429
2022-11-30T02:43:32.750Z,44
2022-11-30T02:44:32.812Z,44.5
2022-11-30T02:45:32.817Z,43.2143
2022-11-30T02:46:32.884Z,44.1429
2022-11-30T02:47:32.878Z,43.8571
2022-11-30T02:48:32.912Z,45.7143
2022-11-30T02:49:32.960Z,45.8571
2022-11-30T02:50:32.980Z,44
2022-11-30T02:51:33.002Z,43.3571
2022-11-30T02:52:33.063Z,44.5
2022-11-30T02:53:33.064Z,45.9286
2022-11-30T02:54:33.119Z,45.3571
2022-11-30T02:55:33.127Z,44.5
2022-11-30T02:56:33.148Z,44
2022-11-30T02:57:33.180Z,44.3571
2022-11-30T02:58:33.240Z,44.2143
2022-11-30T02:59:33.252Z,44.9286
2022-11-30T03:00:33.286Z,43.4286
2022-11-30T03:01:33.401Z,44.3571
2022-11-30T03:02:33.406Z,45.2143
2022-11-30T03:03:33.399Z,46.7143
2022-11-30T03:04:33.414Z,45.6429
2022-11-30T03:05:33.462Z,43.8571
2022-11-30T03:06:33.484Z,46
2022-11-30T03:07:33.585Z,45
2022-11-30T03:08:33.538Z,45.1429
2022-11-30T03:09:33.562Z,44.9286
2022-11-30T03:10:33.600Z,44.8571
2022-11-30T03:11:33.633Z,43.7143
2022-11-30T03:12:33.663Z,45.3571
2022-11-30T03:13:33.709Z,44.3571
2022-11-30T03:14:33.715Z,43.2143
2022-11-30T03:15:33.837Z,44.2143
2022-11-30T03:16:33.772Z,44.6429
2022-11-30T03:17:33.807Z,44.7143
2022-11-30T03:18:33.869Z,44.7143
2022-11-30T03:19:33.910Z,44.7143
2022-11-30T03:20:33.916Z,45.5
2022-11-30T03:21:33.939Z,45.5
2022-11-30T03:22:34.002Z,45.1429
2022-11-30T03:23:34.029Z,44.6429
2022-11-30T03:24:34.029Z,45.1429
2022-11-30T03:25:34.069Z,42.6429
2022-11-30T03:26:34.086Z,47.2143
2022-11-30T03:27:34.127Z,44.8571
2022-11-30T03:28:34.187Z,44.8571
2022-11-30T03:29:34.211Z,44.8571
2022-11-30T03:30:34.221Z,45.6429
2022-11-30T03:31:34.303Z,45.4286
2022-11-30T03:32:34.285Z,45.9286
2022-11-30T03:33:34.307Z,44
2022-11-30T03:34:34.357Z,44.6429
2022-11-30T03:35:34.362Z,45.6429
2022-11-30T03:36:34.404Z,44.3571
2022-11-30T03:37:34.461Z,44.3571
2022-11-30T03:38:34.472Z,43.6429
2022-11-30T03:39:34.505Z,44.5
2022-11-30T03:40:34.533Z,45.4286
2022-11-30T03:41:34.572Z,43.9286
2022-11-30T03:42:34.622Z,45.2143
2022-11-30T03:43:34.648Z,45.4286
2022-11-30T03:44:34.663Z,45.1429
2022-11-30T03:45:34.699Z,45.1429
2022-11-30T03:46:34.781Z,44.5
2022-11-30T03:47:34.760Z,43.1429
2022-11-30T03:48:34.806Z,42.8571
2022-11-30T03:49:34.820Z,43
2022-11-30T03:50:34.853Z,44.8571
2022-11-30T03:51:34.882Z,46
2022-11-30T03:52:34.930Z,44.2143
2022-11-30T03:53:34.968Z,44.1429
2022-11-30T03:54:34.974Z,43.9286
2022-11-30T03:55:35.006Z,43.6429
2022-11-30T03:56:35.044Z,42.4286
2022-11-30T03:57:35.073Z,43.8571
2022-11-30T03:58:35.125Z,44.6429
2022-11-30T03:59:35.134Z,45.9286
2022-11-30T04:00:35.178Z,44.9286
2022-11-30T04:01:35.243Z,44.2143
2022-11-30T04:02:37.952Z,43.7143
2022-11-30T04:03:35.285Z,43.5
2022-11-30T04:04:35.299Z,45.2143
2022-11-30T04:05:35.329Z,43.3571
2022-11-30T04:06:35.381Z,44
2022-11-30T04:07:35.470Z,45.6429
2022-11-30T04:08:35.433Z,44.3571
2022-11-30T04:09:35.447Z,44.2143
2022-11-30T04:10:35.475Z,46.5
2022-11-30T04:11:35.510Z,43.6429
2022-11-30T04:12:35.570Z,45.1429
2022-11-30T04:13:35.574Z,44.3571
2022-11-30T04:14:35.599Z,44.8571
2022-11-30T04:15:35.650Z,45.7143
2022-11-30T04:16:35.675Z,43.8571
2022-11-30T04:17:35.734Z,41.8571
2022-11-30T04:18:35.746Z,44.3571
2022-11-30T04:19:35.778Z,43.9286
2022-11-30T04:20:40.202Z,42.8571
2022-11-30T04:21:35.848Z,43.7143
2022-11-30T04:22:35.902Z,44
2022-11-30T04:23:35.918Z,43.9286
2022-11-30T04:24:35.936Z,44
2022-11-30T04:25:35.961Z,44.3571
2022-11-30T04:26:36.020Z,42.7143
2022-11-30T04:27:36.031Z,44.4286
2022-11-30T04:28:36.070Z,44.4286
2022-11-30T04:29:36.093Z,44.7143
2022-11-30T04:30:36.121Z,44.1429
2022-11-30T04:31:36.212Z,43.6429
2022-11-30T04:32:36.198Z,44.5
2022-11-30T04:33:36.254Z,43.8571
2022-11-30T04:34:36.265Z,44
2022-11-30T04:35:36.297Z,44.2143
2022-11-30T04:36:36.330Z,43
2022-11-30T04:37:36.385Z,43.4286
2022-11-30T04:38:36.412Z,44
2022-11-30T04:39:36.421Z,43.8571
2022-11-30T04:40:36.458Z,43.4286
2022-11-30T04:41:36.496Z,45.4286
2022-11-30T04:42:36.527Z,44.8571
2022-11-30T04:43:36.582Z,43.5
2022-11-30T04:44:36.593Z,43.8571
2022-11-30T04:45:36.620Z,43.5
2022-11-30T04:46:36.710Z,45.1429
2022-11-30T04:47:36.683Z,44.3571
2022-11-30T04:48:36.703Z,41.8571
2022-11-30T04:49:36.750Z,43.8571
2022-11-30T04:50:36.781Z,44.7143
2022-11-30T04:51:36.818Z,42.9286
2022-11-30T04:52:36.834Z,43.9286
2022-11-30T04:53:36.896Z,43.9286
2022-11-30T04:54:36.906Z,42.7143
2022-11-30T04:55:36.940Z,42.5
2022-11-30T04:56:36.973Z,44.6429
2022-11-30T04:57:37.027Z,44
2022-11-30T04:58:37.058Z,42.9286
2022-11-30T04:59:37.094Z,43.6429
2022-11-30T05:00:37.099Z,43.2143
2022-11-30T05:01:37.197Z,45
2022-11-30T05:02:37.160Z,43.7143
2022-11-30T05:03:37.217Z,42.7143
2022-11-30T05:04:37.285Z,43.3571
2022-11-30T05:05:37.258Z,43.8571
2022-11-30T05:06:37.306Z,41.7143
2022-11-30T05:07:37.410Z,43.9286
2022-11-30T05:08:37.357Z,41.9286
2022-11-30T05:09:37.403Z,43.1429
2022-11-30T05:10:37.413Z,41.7143
2022-11-30T05:11:37.446Z,41.9286
2022-11-30T05:12:37.490Z,43.2143
2022-11-30T05:13:37.551Z,42.4286
2022-11-30T05:14:37.563Z,42.9286
2022-11-30T05:15:37.598Z,41.8571
2022-11-30T05:16:37.658Z,41.5
2022-11-30T05:17:37.683Z,42.6429
2022-11-30T05:18:37.718Z,43.3571
2022-11-30T05:19:37.761Z,44.3571
2022-11-30T05:20:37.774Z,42.8571
2022-11-30T05:21:41.330Z,42.3571
2022-11-30T05:22:37.842Z,42.4286
2022-11-30T05:23:37.873Z,41.8571
2022-11-30T05:24:37.926Z,43.1429
2022-11-30T05:25:37.943Z,42.8571
2022-11-30T05:26:37.971Z,43.8571
2022-11-30T05:27:37.993Z,45
2022-11-30T05:28:38.045Z,42.2143
2022-11-30T05:29:38.056Z,44.6429
2022-11-30T05:30:38.082Z,42.4286
2022-11-30T05:31:38.184Z,42.9286
2022-11-30T05:32:38.152Z,44.8571
2022-11-30T05:33:38.201Z,43.6429
2022-11-30T05:34:50.072Z,42.1429
2022-11-30T05:35:38.240Z,41.3571
2022-11-30T05:36:38.268Z,43.3571
2022-11-30T05:37:38.296Z,44.8571
2022-11-30T05:38:38.323Z,43.8571
2022-11-30T05:39:38.388Z,41.9286
2022-11-30T05:40:38.402Z,42.5
2022-11-30T05:41:38.437Z,43.1429
2022-11-30T05:42:38.466Z,44
2022-11-30T05:43:38.500Z,43.3571
2022-11-30T05:44:38.545Z,43.2143
2022-11-30T05:45:38.549Z,42.5
2022-11-30T05:46:41.083Z,42.5
2022-11-30T05:47:38.611Z,43.3571
2022-11-30T05:48:38.679Z,42.5
2022-11-30T05:49:38.698Z,42.1429
2022-11-30T05:50:38.743Z,42.9286
2022-11-30T05:51:38.748Z,42.5
2022-11-30T05:52:38.775Z,44.3571
2022-11-30T05:53:38.813Z,41.8571
2022-11-30T05:54:38.868Z,44.3571
2022-11-30T05:55:38.871Z,41.6429
2022-11-30T05:56:38.901Z,42.3571
2022-11-30T05:57:38.940Z,42.4286
2022-11-30T05:58:38.976Z,42.4286
2022-11-30T05:59:38.995Z,42.5
2022-11-30T06:00:39.033Z,42.2143
2022-11-30T06:01:39.231Z,42.5
2022-11-30T06:02:39.287Z,44.5
2022-11-30T06:03:39.120Z,43.1429
2022-11-30T06:04:39.148Z,42.4286
2022-11-30T06:05:39.188Z,41.8571
2022-11-30T06:06:39.227Z,42.7143
2022-11-30T06:07:39.306Z,41.6429
2022-11-30T06:08:39.288Z,44.3571
2022-11-30T06:09:39.330Z,42.4286
2022-11-30T06:10:39.363Z,42.4286
2022-11-30T06:11:39.387Z,44
2022-11-30T06:12:39.420Z,43.8571
2022-11-30T06:13:39.451Z,44
2022-11-30T06:14:39.476Z,42.6429
2022-11-30T06:15:39.507Z,43.1429
2022-11-30T06:16:39.632Z,42.7143
2022-11-30T06:17:39.570Z,43.8571
2022-11-30T06:18:39.604Z,43.4286
2022-11-30T06:19:39.634Z,43.3571
2022-11-30T06:20:39.685Z,43.2143
2022-11-30T06:21:39.694Z,43.1429
2022-11-30T06:22:39.722Z,43.7143
2022-11-30T06:23:39.752Z,41.8571
2022-11-30T06:24:39.792Z,41.6429
2022-11-30T06:25:39.796Z,42.5
2022-11-30T06:26:39.830Z,41.5
2022-11-30T06:27:39.861Z,42.2143
2022-11-30T06:28:43.062Z,42.3571
2022-11-30T06:29:39.921Z,42
2022-11-30T06:30:39.951Z,41.2143
2022-11-30T06:31:39.991Z,41.5
2022-11-30T06:32:40.010Z,42.8571
2022-11-30T06:33:40.047Z,41.8571
2022-11-30T06:34:40.088Z,44.6429
2022-11-30T06:35:40.117Z,43.3571
2022-11-30T06:36:40.142Z,42.7143
2022-11-30T06:37:40.172Z,42.4286
2022-11-30T06:38:40.197Z,41.5
2022-11-30T06:40:04.931Z,43.5
2022-11-30T06:40:40.285Z,42.2143
2022-11-30T06:41:40.276Z,40.6429
2022-11-30T06:42:40.313Z,43.1429
2022-11-30T06:43:40.345Z,42.6429
2022-11-30T06:44:40.382Z,41.7143
2022-11-30T06:45:40.436Z,42.8571
2022-11-30T06:46:40.443Z,41.3571
2022-11-30T06:47:40.472Z,42.3571
2022-11-30T06:48:40.507Z,40.8571
2022-11-30T06:49:40.539Z,43.3571
2022-11-30T06:50:43.254Z,43.3571
2022-11-30T06:51:40.601Z,43.1429
2022-11-30T06:52:40.634Z,42.1429
2022-11-30T06:53:40.665Z,44.3571
2022-11-30T06:54:40.702Z,42.7143
2022-11-30T06:55:40.725Z,42.6429
2022-11-30T06:56:40.785Z,41.9286
2022-11-30T06:57:40.778Z,43.5
2022-11-30T06:58:40.807Z,43.1429
2022-11-30T06:59:40.837Z,41.7143
2022-11-30T07:00:40.900Z,43.2143
2022-11-30T07:01:40.918Z,43.2143
2022-11-30T07:02:40.927Z,42
2022-11-30T07:03:41.135Z,42.9286
2022-11-30T07:04:40.985Z,41.5
2022-11-30T07:05:41.038Z,42
2022-11-30T07:06:41.044Z,41.4286
2022-11-30T07:07:41.188Z,43
2022-11-30T07:08:41.113Z,43.3571
2022-11-30T07:09:41.138Z,42.7143
2022-11-30T07:10:41.165Z,43.4286
2022-11-30T07:11:41.200Z,42.4286
2022-11-30T07:12:41.234Z,43.4286
2022-11-30T07:13:41.265Z,42.6429
2022-11-30T07:14:41.303Z,43.3571
2022-11-30T07:15:41.334Z,42
2022-11-30T07:16:41.410Z,42.2143
2022-11-30T07:17:41.392Z,41.2143
2022-11-30T07:18:41.426Z,42.2143
2022-11-30T07:19:41.459Z,42
2022-11-30T07:20:41.477Z,42.9286
2022-11-30T07:21:41.519Z,42.1429
2022-11-30T07:22:41.552Z,42.8571
2022-11-30T07:23:41.577Z,43.1429
2022-11-30T07:24:41.606Z,43
2022-11-30T07:25:41.630Z,42.8571
2022-11-30T07:26:41.674Z,41.8571
2022-11-30T07:27:41.704Z,42.1429
2022-11-30T07:28:41.734Z,41.9286
2022-11-30T07:29:41.779Z,43.8571
2022-11-30T07:30:41.810Z,42.7143
2022-11-30T07:31:41.865Z,42.3571
2022-11-30T07:32:41.881Z,41.4286
2022-11-30T07:33:41.913Z,42.1429
2022-11-30T07:34:41.951Z,42.3571
2022-11-30T07:35:41.977Z,41.1429
2022-11-30T07:36:42.012Z,41.1429
2022-11-30T07:37:42.033Z,43.3571
2022-11-30T07:38:42.056Z,42.6429
2022-11-30T07:39:42.089Z,44.3571
2022-11-30T07:40:42.138Z,42.9286
2022-11-30T07:41:42.155Z,41.7143
2022-11-30T07:42:42.186Z,41.4286
2022-11-30T07:43:42.221Z,43.7143
2022-11-30T07:44:42.242Z,42.1429
2022-11-30T07:45:42.378Z,40.3571
2022-11-30T07:46:42.305Z,41.1429
2022-11-30T07:47:42.333Z,41.7143
2022-11-30T07:48:42.357Z,41.2143
2022-11-30T07:49:42.393Z,42.6429
2022-11-30T07:50:42.421Z,41.8571
2022-11-30T07:51:42.463Z,41.6429
2022-11-30T07:52:42.494Z,42
2022-11-30T07:53:42.521Z,41.7143
2022-11-30T07:54:42.577Z,42
2022-11-30T07:55:42.587Z,40.9286
2022-11-30T07:56:42.620Z,43.3571
2022-11-30T07:57:42.652Z,41.4286
2022-11-30T07:58:42.703Z,41.4286
2022-11-30T07:59:42.709Z,42.7143
2022-11-30T08:00:42.788Z,43
2022-11-30T08:01:42.915Z,44.2143
2022-11-30T08:02:42.822Z,40.3571
2022-11-30T08:03:42.832Z,40.6429
2022-11-30T08:04:42.923Z,39.2143
2022-11-30T08:05:42.883Z,40.8571
2022-11-30T08:06:42.909Z,40.4286
2022-11-30T08:07:42.974Z,41.3571
2022-11-30T08:08:42.961Z,42.1429
2022-11-30T08:09:43.001Z,42.4286
2022-11-30T08:10:43.032Z,41.6429
2022-11-30T08:11:43.072Z,39.6429
2022-11-30T08:12:43.106Z,39.9286
2022-11-30T08:13:43.137Z,41.8571
2022-11-30T08:15:17.622Z,40.8571
2022-11-30T08:15:43.194Z,41.1429
2022-11-30T08:16:43.285Z,38.2143
2022-11-30T08:17:43.252Z,40.1429
2022-11-30T08:18:43.316Z,39
2022-11-30T08:19:43.325Z,38.9286
2022-11-30T08:20:48.423Z,38.3571
2022-11-30T08:21:43.385Z,38.9286
2022-11-30T08:22:43.410Z,39.8571
2022-11-30T08:23:43.602Z,39.6429
2022-11-30T08:24:43.465Z,40
2022-11-30T08:25:43.502Z,39.5
2022-11-30T08:26:43.529Z,40
2022-11-30T08:27:43.570Z,40.5
2022-11-30T08:28:43.599Z,38.8571
2022-11-30T08:29:43.620Z,39.5
2022-11-30T08:30:43.754Z,37.7143
2022-11-30T08:31:43.692Z,38.6429
2022-11-30T08:32:43.725Z,38
2022-11-30T08:33:43.765Z,38.9286
2022-11-30T08:34:43.780Z,38.1429
2022-11-30T08:35:43.812Z,38.3571
2022-11-30T08:36:48.796Z,38.1429
2022-11-30T08:37:43.887Z,39.3571
2022-11-30T08:38:43.922Z,39.3571
2022-11-30T08:39:43.950Z,38.3571
2022-11-30T08:40:43.976Z,38.1429
2022-11-30T08:41:44.015Z,39.6429
2022-11-30T08:42:44.049Z,38.6429
2022-11-30T08:43:44.082Z,39.4286
2022-11-30T08:44:44.106Z,38.3571
2022-11-30T08:45:44.191Z,39.8571
2022-11-30T08:46:52.321Z,39.1429
2022-11-30T08:47:44.199Z,37.9286
2022-11-30T08:48:44.236Z,38.3571
2022-11-30T08:49:44.256Z,36.6429
2022-11-30T08:50:44.279Z,37.1429
2022-11-30T08:52:15.514Z,37.6429
2022-11-30T08:52:44.347Z,36.6429
2022-11-30T08:53:44.379Z,36.1429
2022-11-30T08:54:44.400Z,36.2143
2022-11-30T08:55:44.432Z,37.7143
2022-11-30T08:56:44.465Z,36
2022-11-30T08:57:44.494Z,36.6429
2022-11-30T08:58:44.527Z,37.2143
2022-11-30T08:59:44.559Z,38.2143
2022-11-30T09:00:44.586Z,39.2143
2022-11-30T09:01:44.621Z,38.5
2022-11-30T09:02:44.736Z,37.1429
2022-11-30T09:03:44.694Z,36
2022-11-30T09:04:44.727Z,37
2022-11-30T09:05:44.761Z,36.1429
2022-11-30T09:06:44.791Z,37.5
2022-11-30T09:07:44.867Z,35.6429
2022-11-30T09:08:44.936Z,36
2022-11-30T09:09:44.878Z,36.6429
2022-11-30T09:10:44.906Z,36.9286
2022-11-30T09:11:44.937Z,36.9286
2022-11-30T09:12:44.967Z,37.6429
2022-11-30T09:13:44.995Z,36.7143
2022-11-30T09:14:45.236Z,36.5
2022-11-30T09:15:45.117Z,35.9286
2022-11-30T09:16:45.114Z,36.5
2022-11-30T09:17:45.110Z,35.7143
2022-11-30T09:18:45.156Z,37.2143
2022-11-30T09:19:45.176Z,35.6429
2022-11-30T09:20:45.196Z,36.6429
2022-11-30T09:21:51.187Z,35.5
2022-11-30T09:22:45.258Z,35.3571
2022-11-30T09:23:45.289Z,35.5
2022-11-30T09:24:45.991Z,34.8571
2022-11-30T09:25:45.347Z,35.1429
2022-11-30T09:26:45.370Z,34.8571
2022-11-30T09:27:45.403Z,36
2022-11-30T09:28:45.428Z,34.5
2022-11-30T09:29:45.466Z,34.2143
2022-11-30T09:30:45.529Z,36.2143
2022-11-30T09:31:45.532Z,34.7143
2022-11-30T09:32:45.562Z,34.2143
2022-11-30T09:33:45.635Z,33.9286
2022-11-30T09:34:46.361Z,35.5
2022-11-30T09:35:45.658Z,35
2022-11-30T09:36:45.692Z,34.9286
2022-11-30T09:37:45.731Z,34.8571
2022-11-30T09:38:45.761Z,35.2143
2022-11-30T09:39:45.787Z,34.9286
2022-11-30T09:40:45.825Z,34.8571
2022-11-30T09:41:45.837Z,35.4286
2022-11-30T09:42:45.877Z,36.7143
2022-11-30T09:43:45.895Z,34.2143
2022-11-30T09:44:46.374Z,34.1429
2022-11-30T09:45:46.033Z,34.3571
2022-11-30T09:46:45.998Z,35.6429
2022-11-30T09:47:46.031Z,34.7143
2022-11-30T09:48:46.060Z,34.1429
2022-11-30T09:49:46.095Z,34.3571
2022-11-30T09:50:46.129Z,33.5
2022-11-30T09:51:46.164Z,35
2022-11-30T09:52:46.191Z,34.4286
2022-11-30T09:53:46.221Z,34.5
2022-11-30T09:54:46.529Z,35.2143
2022-11-30T09:55:46.275Z,34
2022-11-30T09:56:46.309Z,34.6429
2022-11-30T09:57:46.343Z,34.7143
2022-11-30T09:58:46.364Z,33
2022-11-30T09:59:46.397Z,33
2022-11-30T10:00:46.421Z,33.7143
2022-11-30T10:01:48.749Z,34.6429
2022-11-30T10:02:46.685Z,33.2143
2022-11-30T10:03:46.509Z,34.2143
2022-11-30T10:04:47.011Z,33.4286
2022-11-30T10:05:46.577Z,32.8571
2022-11-30T10:06:46.604Z,33.4286
2022-11-30T10:07:46.727Z,34.7143
2022-11-30T10:08:50.721Z,33.8571
2022-11-30T10:10:02.944Z,33.6429
2022-11-30T10:10:46.755Z,32
2022-11-30T10:11:46.831Z,33.2143
2022-11-30T10:12:46.816Z,33.7143
2022-11-30T10:13:46.844Z,34.2143
2022-11-30T10:14:47.279Z,32.6429
2022-11-30T10:15:46.969Z,33.1429
2022-11-30T10:16:46.938Z,33.1429
2022-11-30T10:17:46.973Z,33
2022-11-30T10:18:46.999Z,33.9286
2022-11-30T10:19:47.033Z,33.6429
2022-11-30T10:20:47.063Z,35.3571
2022-11-30T10:21:47.091Z,33.4286
2022-11-30T10:22:47.130Z,34.2143
2022-11-30T10:23:47.154Z,34
2022-11-30T10:24:47.305Z,33.3571
2022-11-30T10:25:47.202Z,33.5
2022-11-30T10:26:47.238Z,33.8571
2022-11-30T10:27:47.269Z,34.5
2022-11-30T10:28:48.195Z,34.1429
2022-11-30T10:29:47.360Z,34.9286
2022-11-30T10:30:47.422Z,35.4286
2022-11-30T10:31:47.384Z,35.9286
2022-11-30T10:32:47.423Z,35
2022-11-30T10:33:47.455Z,34.9286
2022-11-30T10:34:47.628Z,34.7143
2022-11-30T10:35:47.506Z,34.6429
2022-11-30T10:36:47.542Z,33.7143
2022-11-30T10:37:47.570Z,32.3571
2022-11-30T10:38:47.606Z,35
2022-11-30T10:39:47.645Z,35
2022-11-30T10:40:47.674Z,35.6429
2022-11-30T10:41:47.708Z,33.9286
2022-11-30T10:42:47.748Z,35.7143
2022-11-30T10:43:47.783Z,35.3571
2022-11-30T10:44:48.134Z,35.8571
2022-11-30T10:45:47.847Z,34.1429
2022-11-30T10:46:47.952Z,33.9286
2022-11-30T10:47:47.916Z,33.9286
2022-11-30T10:48:47.950Z,35.9286
2022-11-30T10:49:47.982Z,33.7143
2022-11-30T10:50:48.014Z,33.9286
2022-11-30T10:51:48.045Z,34.2143
2022-11-30T10:52:48.082Z,34.6429
2022-11-30T10:53:48.130Z,34.5
2022-11-30T10:54:48.593Z,33.8571
2022-11-30T10:55:48.174Z,34.8571
2022-11-30T10:56:48.231Z,33
2022-11-30T10:57:48.240Z,33.3571
2022-11-30T10:58:48.275Z,31.8571
2022-11-30T10:59:48.660Z,33.8571
2022-11-30T11:00:48.337Z,32.8571
2022-11-30T11:01:48.414Z,33.6429
2022-11-30T11:02:48.457Z,34.9286
2022-11-30T11:03:48.485Z,34.7143
2022-11-30T11:04:48.461Z,36.5
2022-11-30T11:05:48.491Z,35.7143
2022-11-30T11:06:48.597Z,34.6429
2022-11-30T11:07:48.637Z,36.8571
2022-11-30T11:08:48.594Z,36.1429
2022-11-30T11:09:49.073Z,35.5
2022-11-30T11:10:48.658Z,35.7143
2022-11-30T11:11:48.679Z,34.7143
2022-11-30T11:12:48.706Z,35.7143
2022-11-30T11:13:48.735Z,35.5
2022-11-30T11:14:48.765Z,36.6429
2022-11-30T11:15:48.898Z,35.1429
2022-11-30T11:16:48.833Z,37.5
2022-11-30T11:17:48.888Z,34.6429
2022-11-30T11:18:48.900Z,35.5
2022-11-30T11:19:49.239Z,36.1429
2022-11-30T11:20:51.757Z,37.1429
2022-11-30T11:21:49.003Z,38.1429
2022-11-30T11:22:49.054Z,36
2022-11-30T11:23:49.059Z,38.2143
2022-11-30T11:24:49.093Z,36.9286
2022-11-30T11:25:49.149Z,37.1429
2022-11-30T11:26:49.157Z,35.2143
2022-11-30T11:27:49.189Z,37.6429
2022-11-30T11:28:49.220Z,37.4286
2022-11-30T11:29:49.645Z,38.3571
2022-11-30T11:30:49.338Z,37.3571
2022-11-30T11:31:49.328Z,38
2022-11-30T11:32:49.353Z,36.2143
2022-11-30T11:33:49.390Z,36.9286
2022-11-30T11:34:51.303Z,34.4286
2022-11-30T11:35:49.474Z,35.7143
2022-11-30T11:36:49.478Z,37.7143
2022-11-30T11:37:49.516Z,37
2022-11-30T11:38:49.551Z,36
2022-11-30T11:39:49.767Z,36.8571
2022-11-30T11:40:49.614Z,37.7143
2022-11-30T11:41:49.648Z,36.9286
2022-11-30T11:42:49.697Z,36.4286
2022-11-30T11:43:49.711Z,36.5
2022-11-30T11:44:49.750Z,37.7143
2022-11-30T11:45:49.779Z,38.3571
2022-11-30T11:46:49.868Z,36.6429
2022-11-30T11:47:49.839Z,37.4286
2022-11-30T11:48:49.871Z,36.3571
2022-11-30T11:49:50.048Z,37.4286
2022-11-30T11:51:06.106Z,37.9286
2022-11-30T11:51:49.971Z,37
2022-11-30T11:52:50.006Z,36.4286
2022-11-30T11:53:53.550Z,37
2022-11-30T11:54:50.067Z,38.6429
2022-11-30T11:55:50.107Z,36.6429
2022-11-30T11:56:50.136Z,37.6429
2022-11-30T11:57:50.162Z,38.1429
2022-11-30T11:58:50.220Z,37.7143
2022-11-30T11:59:50.470Z,36.9286
2022-11-30T12:00:50.265Z,36
2022-11-30T12:01:50.316Z,37.1429
2022-11-30T12:02:50.430Z,38.9286
2022-11-30T12:03:50.445Z,36.7143
2022-11-30T12:04:50.382Z,37.1429
2022-11-30T12:05:50.412Z,38.2143
2022-11-30T12:06:50.439Z,38.3571
2022-11-30T12:07:50.566Z,37.2143
2022-11-30T12:08:50.519Z,36.5
2022-11-30T12:09:50.534Z,36.4286
2022-11-30T12:10:52.467Z,36.5
2022-11-30T12:11:50.604Z,37.5
2022-11-30T12:12:54.662Z,37.5
2022-11-30T12:13:50.661Z,38.4286
2022-11-30T12:14:50.685Z,39.3571
2022-11-30T12:15:50.788Z,37.5
2022-11-30T12:16:50.747Z,37.8571
2022-11-30T12:17:50.774Z,37.8571
2022-11-30T12:18:50.801Z,37.8571
2022-11-30T12:19:50.836Z,39
2022-11-30T12:20:50.870Z,37.9286
2022-11-30T12:21:50.901Z,38.8571
2022-11-30T12:22:50.932Z,37.4286